Time;durP1;ratioP1;P1;durP2;ratioP2;P2;SDS_P1;SDS_P2;PMS_P1;PMS_P2;Temp;Humidity;BMP_temperature;BMP_pressure;BME280_temperature;BME280_humidity;BME280_pressure;Samples;Min_cycle;Max_cycle;Signal;HPM_P1;HPM_P2
2022/12/02 00:00:43;;;;;;;68.00;31.73;;;;;;;;;;5133799;27;20409;-72
2022/12/02 00:03:12;;;;;;;62.47;30.77;;;;;;;;;;5133165;27;20055;-72
2022/12/02 00:05:38;;;;;;;69.82;32.95;;;;;;;;;;5133196;27;20043;-72
2022/12/02 00:08:20;;;;;;;73.72;34.05;;;;;;;;;;5132550;27;20047;-72
2022/12/02 00:10:47;;;;;;;68.68;32.22;;;;;;;;;;5118223;27;20122;-72
2022/12/02 00:13:13;;;;;;;71.65;30.55;;;;;;;;;;5134079;27;20581;-72
2022/12/02 00:15:43;;;;;;;73.32;32.40;;;;;;;;;;5133653;27;20048;-72
2022/12/02 00:18:11;;;;;;;64.10;30.58;;;;;;;;;;5133855;27;20046;-72
2022/12/02 00:20:37;;;;;;;61.05;29.15;;;;;;;;;;5134584;27;20401;-72
2022/12/02 00:23:03;;;;;;;58.08;27.60;;;;;;;;;;5131596;27;20131;-72
2022/12/02 00:25:30;;;;;;;57.22;27.85;;;;;;;;;;5119584;27;20036;-72
2022/12/02 00:27:56;;;;;;;53.50;27.23;;;;;;;;;;5108088;28;20044;-72
2022/12/02 00:30:22;;;;;;;54.05;27.13;;;;;;;;;;5126165;27;20053;-72
2022/12/02 00:32:48;;;;;;;55.83;26.58;;;;;;;;;;5129932;27;20042;-72
2022/12/02 00:35:15;;;;;;;51.00;25.45;;;;;;;;;;5133202;27;20050;-72
2022/12/02 00:37:41;;;;;;;55.25;25.98;;;;;;;;;;5133419;27;20039;-72
2022/12/02 00:40:07;;;;;;;54.22;26.77;;;;;;;;;;5133250;27;20043;-72
2022/12/02 00:42:33;;;;;;;52.72;26.25;;;;;;;;;;5131125;27;20046;-72
2022/12/02 00:47:44;;;;;;;54.65;25.38;;;;;;;;;;5119737;27;20043;-72
2022/12/02 00:50:11;;;;;;;46.83;24.27;;;;;;;;;;5130904;27;20641;-72
2022/12/02 00:52:37;;;;;;;48.53;24.33;;;;;;;;;;5096954;28;20125;-72
2022/12/02 00:55:03;;;;;;;47.97;23.85;;;;;;;;;;5132081;27;20054;-72
2022/12/02 00:57:29;;;;;;;48.08;23.75;;;;;;;;;;5132340;27;20073;-72
2022/12/02 00:59:56;;;;;;;43.22;22.33;;;;;;;;;;5130904;27;20065;-72
2022/12/02 01:02:22;;;;;;;45.70;24.13;;;;;;;;;;5130768;27;20537;-73
2022/12/02 01:04:48;;;;;;;46.10;22.67;;;;;;;;;;5133365;27;20495;-72
2022/12/02 01:07:14;;;;;;;45.55;22.10;;;;;;;;;;5116483;28;20043;-73
2022/12/02 01:09:40;;;;;;;48.35;24.17;;;;;;;;;;5123368;28;20512;-72
2022/12/02 01:12:06;;;;;;;45.75;23.85;;;;;;;;;;5132803;28;20043;-72
2022/12/02 01:14:32;;;;;;;41.60;21.42;;;;;;;;;;5133873;28;20039;-72
2022/12/02 01:16:58;;;;;;;41.30;21.50;;;;;;;;;;5133825;28;20047;-72
2022/12/02 01:19:24;;;;;;;41.60;20.63;;;;;;;;;;5133724;28;20637;-72
2022/12/02 01:21:50;;;;;;;42.05;20.33;;;;;;;;;;5133420;28;20054;-72
2022/12/02 01:24:16;;;;;;;38.50;20.25;;;;;;;;;;5125299;28;20455;-72
2022/12/02 01:26:42;;;;;;;38.17;20.45;;;;;;;;;;5113160;28;20079;-72
2022/12/02 01:29:08;;;;;;;40.67;20.42;;;;;;;;;;5115990;28;20078;-73
2022/12/02 01:31:34;;;;;;;37.40;21.70;;;;;;;;;;5118262;27;20432;-72
2022/12/02 01:34:00;;;;;;;36.83;21.30;;;;;;;;;;5137757;27;20073;-72
2022/12/02 01:36:27;;;;;;;36.15;20.92;;;;;;;;;;5137695;27;20039;-72
2022/12/02 01:38:53;;;;;;;35.85;20.30;;;;;;;;;;5136955;27;20051;-72
2022/12/02 01:41:19;;;;;;;31.90;18.70;;;;;;;;;;5128596;27;20124;-72
2022/12/02 01:43:45;;;;;;;35.45;22.48;;;;;;;;;;5137490;27;20051;-72
2022/12/02 01:46:11;;;;;;;35.97;21.33;;;;;;;;;;5137516;27;20039;-72
2022/12/02 01:48:37;;;;;;;36.95;22.60;;;;;;;;;;5137547;27;20039;-72
2022/12/02 01:51:04;;;;;;;35.92;22.60;;;;;;;;;;5137437;27;20043;-72
2022/12/02 01:53:31;;;;;;;38.03;22.05;;;;;;;;;;5137282;27;20451;-72
2022/12/02 01:55:57;;;;;;;35.20;20.35;;;;;;;;;;5136524;27;20382;-72
2022/12/02 01:58:25;;;;;;;36.00;22.15;;;;;;;;;;5136365;27;20089;-72
2022/12/02 02:00:51;;;;;;;40.88;23.15;;;;;;;;;;5136251;27;20035;-72
2022/12/02 02:03:17;;;;;;;38.25;23.38;;;;;;;;;;5128941;27;20106;-72
2022/12/02 02:05:43;;;;;;;38.35;22.17;;;;;;;;;;5127750;27;20080;-72
2022/12/02 02:08:11;;;;;;;36.72;21.75;;;;;;;;;;5133252;27;20557;-72
2022/12/02 02:10:38;;;;;;;38.88;20.92;;;;;;;;;;5137018;27;20504;-72
2022/12/02 02:13:04;;;;;;;38.40;21.65;;;;;;;;;;5136788;27;20047;-72
2022/12/02 02:15:31;;;;;;;36.22;21.67;;;;;;;;;;5126724;27;20502;-72
2022/12/02 02:17:57;;;;;;;40.47;22.48;;;;;;;;;;5116371;28;20048;-72
2022/12/02 02:20:25;;;;;;;36.60;21.90;;;;;;;;;;5130251;27;20039;-72
2022/12/02 02:22:58;;;;;;;39.92;22.63;;;;;;;;;;5136321;27;20081;-72
2022/12/02 02:25:24;;;;;;;40.40;23.55;;;;;;;;;;5116360;28;20044;-72
2022/12/02 02:27:52;;;;;;;39.00;22.52;;;;;;;;;;5116055;28;20043;-72
2022/12/02 02:30:19;;;;;;;39.00;22.73;;;;;;;;;;5134402;27;20126;-73
2022/12/02 02:32:45;;;;;;;38.25;22.92;;;;;;;;;;5099558;27;20043;-72
2022/12/02 02:35:11;;;;;;;38.00;21.55;;;;;;;;;;5136818;27;20035;-73
2022/12/02 02:37:37;;;;;;;37.45;22.27;;;;;;;;;;5134190;27;20039;-72
2022/12/02 02:40:04;;;;;;;35.55;20.77;;;;;;;;;;5134452;27;20418;-72
2022/12/02 02:42:30;;;;;;;32.38;18.90;;;;;;;;;;5126609;27;20051;-73
2022/12/02 02:44:56;;;;;;;36.20;21.73;;;;;;;;;;5115830;28;20406;-73
2022/12/02 02:47:22;;;;;;;35.95;20.85;;;;;;;;;;5134103;27;20398;-73
2022/12/02 02:49:48;;;;;;;32.30;18.77;;;;;;;;;;5135828;27;20119;-73
2022/12/02 02:52:14;;;;;;;35.63;20.90;;;;;;;;;;5135399;27;20041;-73
2022/12/02 02:54:40;;;;;;;35.83;19.92;;;;;;;;;;5134520;27;20049;-72
2022/12/02 02:57:08;;;;;;;39.28;20.40;;;;;;;;;;5128750;27;20043;-73
2022/12/02 02:59:34;;;;;;;38.78;21.77;;;;;;;;;;5133902;27;20089;-73
2022/12/02 03:02:04;;;;;;;37.38;20.27;;;;;;;;;;5134789;27;20088;-73
2022/12/02 03:04:30;;;;;;;34.45;17.73;;;;;;;;;;5133667;27;20047;-73
2022/12/02 03:06:57;;;;;;;39.35;20.33;;;;;;;;;;5124159;27;20047;-72
2022/12/02 03:09:24;;;;;;;37.35;19.40;;;;;;;;;;5134214;27;20039;-73
2022/12/02 03:11:51;;;;;;;42.67;20.88;;;;;;;;;;5134457;27;20036;-72
2022/12/02 03:14:18;;;;;;;37.60;20.17;;;;;;;;;;5134087;27;20413;-73
2022/12/02 03:16:45;;;;;;;37.30;19.23;;;;;;;;;;5135847;27;20084;-73
2022/12/02 03:19:12;;;;;;;41.20;20.52;;;;;;;;;;5131165;27;20031;-72
2022/12/02 03:21:38;;;;;;;43.80;21.55;;;;;;;;;;5133944;27;20406;-73
2022/12/02 03:24:04;;;;;;;45.88;22.65;;;;;;;;;;5134542;27;20117;-72
2022/12/02 03:26:32;;;;;;;47.88;24.15;;;;;;;;;;5134926;27;20039;-73
2022/12/02 03:28:58;;;;;;;52.28;25.50;;;;;;;;;;5133723;27;20051;-72
2022/12/02 03:31:25;;;;;;;50.50;24.30;;;;;;;;;;5133183;27;20547;-73
2022/12/02 03:33:51;;;;;;;53.42;24.50;;;;;;;;;;5128360;27;20043;-73
2022/12/02 03:36:17;;;;;;;48.58;24.67;;;;;;;;;;5135233;27;20519;-73
2022/12/02 03:38:43;;;;;;;51.67;26.35;;;;;;;;;;5135302;27;20043;-72
2022/12/02 03:41:10;;;;;;;52.25;24.35;;;;;;;;;;5119564;27;20039;-72
2022/12/02 03:43:36;;;;;;;48.33;23.13;;;;;;;;;;5114564;28;20047;-73
2022/12/02 03:46:03;;;;;;;50.10;25.70;;;;;;;;;;5114820;28;20035;-73
2022/12/02 03:48:29;;;;;;;51.20;25.30;;;;;;;;;;5126689;27;20151;-73
2022/12/02 03:50:56;;;;;;;52.58;25.92;;;;;;;;;;5133888;27;20042;-73
2022/12/02 03:53:22;;;;;;;49.85;24.45;;;;;;;;;;5134043;27;20046;-73
2022/12/02 03:55:49;;;;;;;52.22;25.23;;;;;;;;;;5134960;27;20054;-73
2022/12/02 03:58:15;;;;;;;53.58;26.20;;;;;;;;;;5133968;27;20103;-73
2022/12/02 04:00:41;;;;;;;56.67;25.52;;;;;;;;;;5133441;27;20073;-73
2022/12/02 04:03:07;;;;;;;51.25;25.90;;;;;;;;;;5123358;27;20464;-73
2022/12/02 04:05:33;;;;;;;46.90;23.02;;;;;;;;;;5133019;27;20082;-73
2022/12/02 04:07:59;;;;;;;48.13;24.17;;;;;;;;;;5133884;27;20062;-73
2022/12/02 04:10:25;;;;;;;46.38;22.58;;;;;;;;;;5132507;27;20498;-73
2022/12/02 04:12:51;;;;;;;50.85;23.65;;;;;;;;;;5133814;27;20039;-73
2022/12/02 04:15:17;;;;;;;45.72;21.55;;;;;;;;;;5133968;27;20070;-73
2022/12/02 04:17:43;;;;;;;46.25;22.67;;;;;;;;;;5133761;27;20046;-72
2022/12/02 04:20:10;;;;;;;46.78;20.80;;;;;;;;;;5131538;27;20035;-73
2022/12/02 04:22:36;;;;;;;48.63;22.05;;;;;;;;;;5133658;27;20039;-73
2022/12/02 04:25:03;;;;;;;48.67;22.95;;;;;;;;;;5132252;27;20048;-73
2022/12/02 04:27:29;;;;;;;46.10;22.50;;;;;;;;;;5130354;27;20052;-72
2022/12/02 04:29:56;;;;;;;48.53;22.40;;;;;;;;;;5133111;27;20054;-72
2022/12/02 04:32:22;;;;;;;47.75;23.90;;;;;;;;;;5132946;27;20062;-73
2022/12/02 04:34:48;;;;;;;49.65;23.30;;;;;;;;;;5113872;28;20043;-72
2022/12/02 04:37:14;;;;;;;46.97;22.20;;;;;;;;;;5122918;27;20043;-73
2022/12/02 04:39:40;;;;;;;52.47;23.85;;;;;;;;;;5132485;27;20047;-73
2022/12/02 04:42:06;;;;;;;49.75;25.30;;;;;;;;;;5133852;27;20059;-73
2022/12/02 04:44:32;;;;;;;50.03;24.70;;;;;;;;;;5132386;27;20043;-73
2022/12/02 04:46:58;;;;;;;46.13;23.00;;;;;;;;;;5131889;27;20118;-73
2022/12/02 04:49:24;;;;;;;51.28;24.65;;;;;;;;;;5121989;27;20497;-73
2022/12/02 04:51:50;;;;;;;49.42;22.40;;;;;;;;;;5130926;27;20421;-73
2022/12/02 04:54:16;;;;;;;53.75;25.52;;;;;;;;;;5133880;27;20046;-73
2022/12/02 04:56:42;;;;;;;52.38;24.55;;;;;;;;;;5132961;27;20497;-73
2022/12/02 04:59:08;;;;;;;50.45;22.88;;;;;;;;;;5134022;27;20122;-73
2022/12/02 05:01:34;;;;;;;49.70;23.50;;;;;;;;;;5133675;27;20039;-73
2022/12/02 05:04:00;;;;;;;52.47;25.60;;;;;;;;;;5133374;27;20096;-73
2022/12/02 05:06:27;;;;;;;59.22;26.27;;;;;;;;;;5116049;28;20040;-73
2022/12/02 05:08:53;;;;;;;56.63;25.42;;;;;;;;;;5113233;28;20050;-73
2022/12/02 05:11:19;;;;;;;56.03;25.20;;;;;;;;;;5114458;28;20129;-72
2022/12/02 05:13:45;;;;;;;59.95;26.65;;;;;;;;;;5133932;28;20043;-73
2022/12/02 05:16:11;;;;;;;57.78;25.85;;;;;;;;;;5133743;28;20050;-72
2022/12/02 05:18:37;;;;;;;57.47;27.80;;;;;;;;;;5133445;28;20128;-73
2022/12/02 05:21:03;;;;;;;57.47;27.38;;;;;;;;;;5127410;28;20055;-72
2022/12/02 05:23:29;;;;;;;62.63;28.95;;;;;;;;;;5113866;28;20410;-73
2022/12/02 05:25:55;;;;;;;61.38;27.13;;;;;;;;;;5124058;28;20125;-72
2022/12/02 05:28:21;;;;;;;60.33;26.65;;;;;;;;;;5132661;28;20046;-73
2022/12/02 05:30:47;;;;;;;61.03;27.77;;;;;;;;;;5129559;28;20093;-72
2022/12/02 05:33:14;;;;;;;60.88;26.45;;;;;;;;;;5129273;28;20068;-72
2022/12/02 05:35:40;;;;;;;63.38;27.70;;;;;;;;;;5132727;28;20489;-72
2022/12/02 05:38:06;;;;;;;58.80;28.98;;;;;;;;;;5132548;28;20494;-72
2022/12/02 05:40:32;;;;;;;60.67;26.92;;;;;;;;;;5132089;28;20127;-72
2022/12/02 05:43:01;;;;;;;64.20;27.48;;;;;;;;;;5131979;28;20051;-72
2022/12/02 05:45:27;;;;;;;58.88;25.58;;;;;;;;;;5130015;28;20054;-72
2022/12/02 05:47:54;;;;;;;69.53;30.85;;;;;;;;;;5128052;28;20039;-72
2022/12/02 05:50:20;;;;;;;56.60;27.73;;;;;;;;;;5128626;28;20058;-73
2022/12/02 05:52:48;;;;;;;63.00;29.40;;;;;;;;;;5130518;28;20055;-72
2022/12/02 05:55:21;;;;;;;65.93;28.95;;;;;;;;;;5132434;28;20494;-73
2022/12/02 05:57:48;;;;;;;61.38;27.75;;;;;;;;;;5131426;28;20039;-73
2022/12/02 06:00:14;;;;;;;64.38;29.17;;;;;;;;;;5130975;28;20079;-73
2022/12/02 06:02:44;;;;;;;63.65;28.73;;;;;;;;;;5123484;28;20505;-73
2022/12/02 06:05:17;;;;;;;64.20;28.02;;;;;;;;;;5131457;28;20128;-73
2022/12/02 06:07:43;;;;;;;63.08;28.92;;;;;;;;;;5123260;28;20039;-73
2022/12/02 06:10:22;;;;;;;67.65;29.02;;;;;;;;;;5121665;28;20078;-73
2022/12/02 06:12:48;;;;;;;62.50;28.48;;;;;;;;;;5129176;28;20498;-73
2022/12/02 06:15:14;;;;;;;64.50;29.63;;;;;;;;;;5113599;28;20039;-73
2022/12/02 06:17:41;;;;;;;68.30;29.25;;;;;;;;;;5118937;27;20057;-72
2022/12/02 06:20:14;;;;;;;65.70;29.67;;;;;;;;;;5136762;27;20039;-72
2022/12/02 06:22:40;;;;;;;61.30;27.77;;;;;;;;;;5112888;27;20054;-73
2022/12/02 06:25:17;;;;;;;61.90;28.17;;;;;;;;;;5130435;27;20047;-73
2022/12/02 06:27:43;;;;;;;69.03;31.23;;;;;;;;;;5133156;27;20043;-72
2022/12/02 06:30:13;;;;;;;61.72;27.65;;;;;;;;;;5128231;27;20043;-72
2022/12/02 06:32:42;;;;;;;65.10;30.00;;;;;;;;;;5126951;27;20065;-72
2022/12/02 06:35:26;;;;;;;63.80;27.92;;;;;;;;;;5122099;27;20044;-73
2022/12/02 06:38:00;;;;;;;60.03;28.77;;;;;;;;;;5116148;27;20079;-72
2022/12/02 06:40:28;;;;;;;70.50;30.27;;;;;;;;;;5120681;27;20051;-72
2022/12/02 06:42:56;;;;;;;68.25;29.75;;;;;;;;;;5134348;27;20047;-72
2022/12/02 06:45:28;;;;;;;64.70;29.80;;;;;;;;;;5125612;27;20048;-72
2022/12/02 06:48:00;;;;;;;62.17;27.88;;;;;;;;;;5135760;27;20088;-72
2022/12/02 06:50:34;;;;;;;62.20;28.13;;;;;;;;;;5131927;27;20043;-73
2022/12/02 06:53:26;;;;;;;63.85;30.20;;;;;;;;;;5133875;27;20057;-73
2022/12/02 06:55:55;;;;;;;66.18;26.63;;;;;;;;;;5124273;27;20047;-73
2022/12/02 06:58:34;;;;;;;66.10;28.48;;;;;;;;;;5108055;27;20054;-73
2022/12/02 07:01:19;;;;;;;66.93;30.08;;;;;;;;;;5135478;27;20046;-72
2022/12/02 07:03:49;;;;;;;65.72;28.75;;;;;;;;;;5122307;27;20051;-72
2022/12/02 07:06:19;;;;;;;71.30;31.48;;;;;;;;;;5133892;27;20104;-73
2022/12/02 07:08:46;;;;;;;67.85;30.42;;;;;;;;;;5132878;27;20431;-72
2022/12/02 07:11:20;;;;;;;66.13;29.27;;;;;;;;;;5124825;27;20092;-73
2022/12/02 07:13:46;;;;;;;55.10;24.92;;;;;;;;;;5132824;27;20134;-72
2022/12/02 07:16:30;;;;;;;67.85;32.30;;;;;;;;;;5135723;27;20046;-73
2022/12/02 07:18:57;;;;;;;68.65;31.60;;;;;;;;;;5134284;27;20065;-73
2022/12/02 07:21:23;;;;;;;69.78;32.63;;;;;;;;;;5135080;27;20042;-73
2022/12/02 07:23:49;;;;;;;66.03;29.20;;;;;;;;;;5117242;27;20054;-73
2022/12/02 07:26:15;;;;;;;73.43;32.30;;;;;;;;;;5135320;27;20039;-73
2022/12/02 07:28:42;;;;;;;75.80;32.00;;;;;;;;;;5135436;27;20118;-73
2022/12/02 07:31:12;;;;;;;70.72;29.90;;;;;;;;;;5135100;27;20039;-73
2022/12/02 07:33:38;;;;;;;67.38;30.98;;;;;;;;;;5135056;27;20100;-72
2022/12/02 07:36:04;;;;;;;64.28;26.13;;;;;;;;;;5131633;27;20374;-73
2022/12/02 07:38:30;;;;;;;71.38;30.38;;;;;;;;;;5132397;27;20043;-73
2022/12/02 07:40:56;;;;;;;63.35;28.95;;;;;;;;;;5113460;27;20054;-73
2022/12/02 07:43:22;;;;;;;66.80;29.45;;;;;;;;;;5120453;27;20043;-72
2022/12/02 07:45:49;;;;;;;69.32;31.15;;;;;;;;;;5109351;27;20088;-73
2022/12/02 07:48:15;;;;;;;73.90;31.25;;;;;;;;;;5131624;27;20046;-73
2022/12/02 07:50:41;;;;;;;73.05;31.13;;;;;;;;;;5119360;27;20059;-73
2022/12/02 07:53:07;;;;;;;76.13;30.33;;;;;;;;;;5125519;27;20050;-73
2022/12/02 07:55:33;;;;;;;75.55;31.30;;;;;;;;;;5133158;27;20118;-73
2022/12/02 07:57:59;;;;;;;72.82;31.42;;;;;;;;;;5132633;27;20054;-73
2022/12/02 08:00:25;;;;;;;76.00;31.35;;;;;;;;;;5132318;27;20404;-73
2022/12/02 08:02:52;;;;;;;71.03;30.73;;;;;;;;;;5132562;27;20371;-73
2022/12/02 08:05:18;;;;;;;71.97;29.75;;;;;;;;;;5133473;27;20121;-73
2022/12/02 08:07:44;;;;;;;70.47;31.15;;;;;;;;;;5114290;27;20035;-73
2022/12/02 08:10:10;;;;;;;69.15;29.15;;;;;;;;;;5133582;27;20050;-73
2022/12/02 08:12:38;;;;;;;75.93;29.30;;;;;;;;;;5133427;27;20051;-73
2022/12/02 08:15:04;;;;;;;78.47;32.63;;;;;;;;;;5130084;27;20051;-73
2022/12/02 08:17:30;;;;;;;64.88;25.42;;;;;;;;;;5115152;27;20058;-72
2022/12/02 08:19:56;;;;;;;72.28;27.77;;;;;;;;;;5133514;27;20058;-73
2022/12/02 08:22:22;;;;;;;70.07;27.55;;;;;;;;;;5132798;27;20039;-73
2022/12/02 08:24:48;;;;;;;69.07;27.17;;;;;;;;;;5133320;27;20054;-73
2022/12/02 08:27:14;;;;;;;66.10;26.02;;;;;;;;;;5134037;27;20043;-73
2022/12/02 08:29:40;;;;;;;63.65;26.65;;;;;;;;;;5131388;27;20054;-73
2022/12/02 08:32:06;;;;;;;66.68;30.08;;;;;;;;;;5133582;27;20433;-73
2022/12/02 08:34:32;;;;;;;67.50;27.63;;;;;;;;;;5133400;27;20527;-73
2022/12/02 08:36:59;;;;;;;71.40;29.65;;;;;;;;;;5133584;27;20119;-73
2022/12/02 08:39:25;;;;;;;66.50;27.60;;;;;;;;;;5114385;27;20047;-73
2022/12/02 08:41:51;;;;;;;73.20;29.85;;;;;;;;;;5113053;28;20043;-73
2022/12/02 08:44:17;;;;;;;70.05;29.02;;;;;;;;;;5130869;27;20497;-73
2022/12/02 08:46:43;;;;;;;75.30;30.83;;;;;;;;;;5114957;27;20455;-73
2022/12/02 08:49:09;;;;;;;71.72;30.48;;;;;;;;;;5133139;27;20451;-73
2022/12/02 08:51:35;;;;;;;79.60;31.30;;;;;;;;;;5133467;27;20350;-73
2022/12/02 08:54:02;;;;;;;70.82;27.67;;;;;;;;;;5131340;27;20042;-73
2022/12/02 08:56:28;;;;;;;69.35;30.50;;;;;;;;;;5132132;27;20109;-73
2022/12/02 08:58:54;;;;;;;69.05;29.20;;;;;;;;;;5133047;27;20504;-73
2022/12/02 09:01:20;;;;;;;76.22;31.88;;;;;;;;;;5133175;27;20050;-73
2022/12/02 09:03:46;;;;;;;72.32;30.38;;;;;;;;;;5128332;27;20055;-73
2022/12/02 09:06:12;;;;;;;69.50;30.40;;;;;;;;;;5117118;27;20448;-72
2022/12/02 09:08:38;;;;;;;69.28;27.20;;;;;;;;;;5121106;27;20408;-73
2022/12/02 09:11:04;;;;;;;85.90;32.45;;;;;;;;;;5127241;28;20043;-73
2022/12/02 09:13:30;;;;;;;72.43;27.50;;;;;;;;;;5120120;28;20043;-73
2022/12/02 09:15:56;;;;;;;88.72;32.13;;;;;;;;;;5131847;28;20051;-72
2022/12/02 09:18:23;;;;;;;91.22;32.53;;;;;;;;;;5125933;28;20035;-73
2022/12/02 09:20:50;;;;;;;94.82;35.40;;;;;;;;;;5121428;28;20454;-73
2022/12/02 09:23:16;;;;;;;93.47;33.92;;;;;;;;;;5115702;28;20525;-73
2022/12/02 09:25:42;;;;;;;90.30;33.95;;;;;;;;;;5112481;28;20048;-73
2022/12/02 09:28:08;;;;;;;98.15;33.72;;;;;;;;;;5112560;28;20043;-73
2022/12/02 09:30:34;;;;;;;92.07;34.30;;;;;;;;;;5118155;28;20122;-73
2022/12/02 09:33:00;;;;;;;89.78;32.15;;;;;;;;;;5119349;28;20054;-73
2022/12/02 09:35:26;;;;;;;88.20;33.75;;;;;;;;;;5121631;28;20039;-73
2022/12/02 09:37:52;;;;;;;85.28;28.63;;;;;;;;;;5112379;28;20043;-73
2022/12/02 09:40:18;;;;;;;80.00;29.90;;;;;;;;;;5116835;28;20077;-73
2022/12/02 09:42:44;;;;;;;73.15;28.23;;;;;;;;;;5123700;28;20039;-73
2022/12/02 09:45:12;;;;;;;84.25;33.15;;;;;;;;;;5129402;28;20044;-73
2022/12/02 09:47:39;;;;;;;82.70;31.30;;;;;;;;;;5132749;28;20047;-73
2022/12/02 09:50:05;;;;;;;68.95;25.25;;;;;;;;;;5133733;27;20161;-73
2022/12/02 09:52:34;;;;;;;67.88;26.55;;;;;;;;;;5136339;27;20418;-73
2022/12/02 09:55:02;;;;;;;68.22;26.55;;;;;;;;;;5127812;27;20430;-73
2022/12/02 09:57:30;;;;;;;61.88;26.95;;;;;;;;;;5116257;28;20430;-73
2022/12/02 09:59:57;;;;;;;70.93;26.52;;;;;;;;;;5116056;28;20418;-73
2022/12/02 10:02:29;;;;;;;63.53;27.00;;;;;;;;;;5115557;28;20048;-73
2022/12/02 10:04:57;;;;;;;58.60;25.77;;;;;;;;;;5115965;28;20134;-73
2022/12/02 10:07:23;;;;;;;60.22;26.27;;;;;;;;;;5132605;27;20083;-73
2022/12/02 10:09:49;;;;;;;58.55;24.42;;;;;;;;;;5106702;27;20070;-73
2022/12/02 10:12:15;;;;;;;55.10;22.65;;;;;;;;;;5125709;27;20138;-73
2022/12/02 10:14:42;;;;;;;61.30;27.42;;;;;;;;;;5129769;27;20054;-73
2022/12/02 10:17:18;;;;;;;58.17;25.20;;;;;;;;;;5133417;27;20088;-73
2022/12/02 10:19:45;;;;;;;56.65;24.88;;;;;;;;;;5117834;27;20066;-73
2022/12/02 10:22:15;;;;;;;49.47;23.48;;;;;;;;;;5136397;27;20397;-73
2022/12/02 10:24:41;;;;;;;50.05;21.20;;;;;;;;;;5134152;27;20047;-73
2022/12/02 10:27:07;;;;;;;56.50;23.92;;;;;;;;;;5134114;27;20039;-73
2022/12/02 10:29:33;;;;;;;46.53;19.90;;;;;;;;;;5124575;27;20043;-73
2022/12/02 10:32:07;;;;;;;56.33;26.35;;;;;;;;;;5134104;27;20050;-73
2022/12/02 10:34:34;;;;;;;58.42;26.42;;;;;;;;;;5115185;28;20043;-72
2022/12/02 10:37:15;;;;;;;54.80;24.00;;;;;;;;;;5115222;28;20047;-73
2022/12/02 10:39:41;;;;;;;;;;;;;;;;;;5130358;27;20031;-72
2022/12/02 10:42:09;;;;;;;53.92;25.50;;;;;;;;;;5134145;27;19923;-73
2022/12/02 10:44:41;;;;;;;57.17;24.25;;;;;;;;;;5135531;27;20054;-73
2022/12/02 10:47:19;;;;;;;61.55;27.70;;;;;;;;;;5135841;27;20146;-73
2022/12/02 10:49:52;;;;;;;62.13;29.50;;;;;;;;;;5135834;27;20043;-73
2022/12/02 10:52:23;;;;;;;68.97;31.20;;;;;;;;;;5135252;27;20051;-73
2022/12/02 10:54:50;;;;;;;64.97;28.08;;;;;;;;;;5134118;27;20050;-73
2022/12/02 10:57:21;;;;;;;61.10;26.80;;;;;;;;;;5133826;27;20043;-73
2022/12/02 10:59:47;;;;;;;61.78;26.92;;;;;;;;;;5128663;27;20429;-73
2022/12/02 11:02:17;;;;;;;65.47;29.20;;;;;;;;;;5125874;27;20051;-73
2022/12/02 11:04:44;;;;;;;68.38;31.75;;;;;;;;;;5133796;27;20039;-73
2022/12/02 11:07:14;;;;;;;64.35;30.10;;;;;;;;;;5134808;27;20076;-73
2022/12/02 11:09:44;;;;;;;68.82;31.88;;;;;;;;;;5134886;27;20046;-73
2022/12/02 11:12:29;;;;;;;71.10;32.22;;;;;;;;;;5115651;27;20062;-72
2022/12/02 11:14:55;;;;;;;66.15;31.15;;;;;;;;;;5132599;27;20486;-73
2022/12/02 11:17:40;;;;;;;73.28;32.25;;;;;;;;;;5134928;27;20375;-73
2022/12/02 11:20:24;;;;;;;71.85;34.03;;;;;;;;;;5133638;27;20039;-73
2022/12/02 11:22:59;;;;;;;68.38;33.05;;;;;;;;;;5129349;27;20456;-73
2022/12/02 11:25:46;;;;;;;78.60;35.50;;;;;;;;;;5114459;28;20044;-73
2022/12/02 11:28:12;;;;;;;81.75;39.03;;;;;;;;;;5113941;28;20469;-73
2022/12/02 11:30:39;;;;;;;81.75;37.95;;;;;;;;;;5125928;27;20039;-73
2022/12/02 11:33:09;;;;;;;71.00;34.55;;;;;;;;;;5133772;27;20103;-72
2022/12/02 11:35:54;;;;;;;72.00;35.00;;;;;;;;;;5133289;27;20050;-73
2022/12/02 11:38:26;;;;;;;72.15;36.72;;;;;;;;;;5134700;27;20047;-73
2022/12/02 11:40:52;;;;;;;68.50;34.58;;;;;;;;;;5134004;27;20410;-72
2022/12/02 11:43:37;;;;;;;67.68;34.33;;;;;;;;;;5114065;27;20044;-73
2022/12/02 11:46:04;;;;;;;70.82;33.78;;;;;;;;;;5124425;27;20529;-73
2022/12/02 11:48:30;;;;;;;70.85;34.70;;;;;;;;;;5120885;27;20131;-73
2022/12/02 11:50:56;;;;;;;69.00;34.55;;;;;;;;;;5121047;27;20052;-73
2022/12/02 11:53:23;;;;;;;74.07;37.03;;;;;;;;;;5132314;27;20092;-73
2022/12/02 11:55:50;;;;;;;73.28;35.65;;;;;;;;;;5133857;27;20032;-73
2022/12/02 11:58:18;;;;;;;69.07;33.55;;;;;;;;;;5130672;27;20069;-73
2022/12/02 12:01:19;;;;;;;77.93;37.22;;;;;;;;;;5118075;27;20047;-72
2022/12/02 12:03:46;;;;;;;74.93;38.22;;;;;;;;;;5049800;28;20514;-73
2022/12/02 12:06:14;;;;;;;70.47;35.22;;;;;;;;;;5050126;28;20045;-73
2022/12/02 12:08:45;;;;;;;71.88;33.78;;;;;;;;;;5041096;28;20527;-73
2022/12/02 12:11:44;;;;;;;75.38;37.60;;;;;;;;;;5036894;28;20065;-72
2022/12/02 12:14:10;;;;;;;70.40;35.20;;;;;;;;;;5026832;28;20061;-72
2022/12/02 12:16:41;;;;;;;69.93;36.17;;;;;;;;;;5031780;28;20171;-73
2022/12/02 12:19:12;;;;;;;68.95;35.83;;;;;;;;;;5035450;28;20049;-73
2022/12/02 12:21:46;;;;;;;65.82;31.30;;;;;;;;;;5030517;28;20451;-73
2022/12/02 12:24:22;;;;;;;67.40;31.75;;;;;;;;;;5031183;28;20061;-73
2022/12/02 12:26:49;;;;;;;63.10;29.13;;;;;;;;;;5034977;28;20060;-73
2022/12/02 12:29:15;;;;;;;73.75;36.47;;;;;;;;;;5051570;28;20041;-73
2022/12/02 12:31:42;;;;;;;73.28;36.88;;;;;;;;;;5049965;28;20060;-73
2022/12/02 12:34:09;;;;;;;50.72;24.80;;;;;;;;;;5049448;28;20041;-73
2022/12/02 12:36:35;;;;;;;68.95;34.50;;;;;;;;;;5052354;28;20041;-73
2022/12/02 12:39:02;;;;;;;72.25;37.65;;;;;;;;;;5133054;27;20047;-73
2022/12/02 12:41:28;;;;;;;72.85;37.88;;;;;;;;;;5104093;28;20050;-73
2022/12/02 12:43:54;;;;;;;76.45;38.55;;;;;;;;;;5113095;28;20054;-73
2022/12/02 12:46:21;;;;;;;74.13;37.03;;;;;;;;;;5112889;28;20051;-73
2022/12/02 12:48:47;;;;;;;69.32;34.10;;;;;;;;;;5106089;27;20055;-73
2022/12/02 12:51:13;;;;;;;75.78;37.25;;;;;;;;;;5119023;27;20043;-72
2022/12/02 12:53:39;;;;;;;57.63;29.20;;;;;;;;;;5132748;27;20039;-73
2022/12/02 12:56:05;;;;;;;72.30;37.38;;;;;;;;;;5131005;27;20048;-73
2022/12/02 12:58:31;;;;;;;67.72;33.35;;;;;;;;;;5130306;27;20451;-73
2022/12/02 13:00:58;;;;;;;72.85;37.33;;;;;;;;;;5133237;27;20489;-73
2022/12/02 13:03:24;;;;;;;84.40;40.35;;;;;;;;;;5127112;27;20138;-73
2022/12/02 13:05:50;;;;;;;60.97;30.83;;;;;;;;;;5117386;27;20524;-72
2022/12/02 13:08:16;;;;;;;75.05;39.55;;;;;;;;;;5132904;27;20096;-72
2022/12/02 13:10:42;;;;;;;71.50;39.35;;;;;;;;;;5124781;27;20493;-73
2022/12/02 13:13:08;;;;;;;71.50;39.13;;;;;;;;;;5122832;28;20520;-73
2022/12/02 13:15:34;;;;;;;73.88;38.35;;;;;;;;;;5125796;28;20155;-73
2022/12/02 13:18:01;;;;;;;71.85;38.10;;;;;;;;;;5133246;28;20123;-73
2022/12/02 13:20:27;;;;;;;67.05;36.10;;;;;;;;;;5133026;28;20077;-72
2022/12/02 13:22:53;;;;;;;69.10;35.35;;;;;;;;;;5132357;28;20092;-73
2022/12/02 13:25:19;;;;;;;71.15;37.88;;;;;;;;;;5121848;27;20096;-73
2022/12/02 13:27:45;;;;;;;78.13;40.03;;;;;;;;;;5122525;27;20043;-73
2022/12/02 13:30:14;;;;;;;72.55;39.50;;;;;;;;;;5128484;27;20039;-73
2022/12/02 13:32:40;;;;;;;74.45;40.15;;;;;;;;;;5126007;27;20087;-73
2022/12/02 13:35:07;;;;;;;71.65;41.13;;;;;;;;;;5135872;27;20051;-73
2022/12/02 13:37:33;;;;;;;69.32;39.35;;;;;;;;;;5137042;27;20100;-73
2022/12/02 13:39:59;;;;;;;64.30;36.90;;;;;;;;;;5137204;27;20051;-73
2022/12/02 13:42:25;;;;;;;68.97;38.67;;;;;;;;;;5118384;27;20413;-73
2022/12/02 13:44:51;;;;;;;71.00;39.53;;;;;;;;;;5136777;27;20422;-73
2022/12/02 13:47:17;;;;;;;71.05;39.92;;;;;;;;;;5125298;27;20078;-73
2022/12/02 13:49:44;;;;;;;75.18;39.60;;;;;;;;;;5129355;27;20051;-73
2022/12/02 13:52:10;;;;;;;71.38;39.78;;;;;;;;;;5136332;27;20047;-73
2022/12/02 13:54:36;;;;;;;71.63;39.92;;;;;;;;;;5137043;27;20047;-73
2022/12/02 13:57:02;;;;;;;64.57;35.78;;;;;;;;;;5136595;27;20466;-73
2022/12/02 13:59:28;;;;;;;73.03;39.00;;;;;;;;;;5136159;27;20043;-73
2022/12/02 14:01:54;;;;;;;71.68;38.65;;;;;;;;;;5135740;27;20092;-73
2022/12/02 14:04:20;;;;;;;65.85;36.85;;;;;;;;;;5132671;27;20072;-72
2022/12/02 14:06:46;;;;;;;71.35;40.05;;;;;;;;;;5119043;27;20050;-72
2022/12/02 14:09:12;;;;;;;71.18;39.65;;;;;;;;;;5122970;27;20047;-73
2022/12/02 14:11:39;;;;;;;67.93;38.67;;;;;;;;;;5133133;27;20118;-73
2022/12/02 14:14:05;;;;;;;70.35;40.05;;;;;;;;;;5135843;27;20055;-73
2022/12/02 14:16:31;;;;;;;66.63;40.53;;;;;;;;;;5130411;27;20032;-73
2022/12/02 14:18:57;;;;;;;61.40;37.50;;;;;;;;;;5128495;27;20413;-73
2022/12/02 14:21:24;;;;;;;57.47;31.50;;;;;;;;;;5123358;27;20410;-73
2022/12/02 14:23:50;;;;;;;64.22;34.08;;;;;;;;;;5132594;27;20050;-73